Time;durP1;ratioP1;P1;durP2;ratioP2;P2;SDS_P1;SDS_P2;PMS_P1;PMS_P2;Temp;Humidity;BMP_temperature;BMP_pressure;BME280_temperature;BME280_humidity;BME280_pressure;Samples;Min_cycle;Max_cycle;Signal;HPM_P1;HPM_P2
2023/07/29 00:00:41;;;;;;;3.15;1.98;;;;;;;17.82;66.55;94462.81;5079150;28;20198;-74
2023/07/29 00:03:08;;;;;;;3.33;2.08;;;;;;;17.78;67.33;94468.25;5068745;28;20321;-74
2023/07/29 00:05:34;;;;;;;2.63;1.90;;;;;;;17.74;67.58;94465.50;5069872;28;20215;-74
2023/07/29 00:08:01;;;;;;;3.35;2.05;;;;;;;17.70;67.99;94474.81;5076178;28;20198;-74
2023/07/29 00:10:28;;;;;;;4.05;2.03;;;;;;;17.60;68.92;94465.31;5068751;28;20222;-74
2023/07/29 00:12:56;;;;;;;3.90;1.80;;;;;;;17.55;69.33;94473.84;5068701;28;20209;-74
2023/07/29 00:15:23;;;;;;;4.65;2.20;;;;;;;17.52;68.94;94474.59;5068971;28;20203;-74
2023/07/29 00:17:50;;;;;;;2.28;1.85;;;;;;;17.55;69.31;94471.13;5068514;28;20195;-74
2023/07/29 00:20:16;;;;;;;5.32;2.10;;;;;;;17.50;69.41;94474.19;5068376;28;20199;-74
2023/07/29 00:22:43;;;;;;;3.63;2.10;;;;;;;17.45;69.59;94473.75;5068145;28;20202;-73
2023/07/29 00:25:10;;;;;;;2.85;2.20;;;;;;;17.37;69.50;94461.91;5071176;28;20543;-73
2023/07/29 00:27:37;;;;;;;3.80;2.25;;;;;;;17.44;69.13;94462.00;5079641;28;20244;-74
2023/07/29 00:30:07;;;;;;;4.70;2.40;;;;;;;17.36;69.44;94463.88;5067389;28;20547;-76
2023/07/29 00:32:33;;;;;;;5.60;1.95;;;;;;;17.41;68.71;94468.22;5067732;28;20826;-75
2023/07/29 00:35:00;;;;;;;3.20;2.20;;;;;;;17.44;69.48;94467.50;5067937;28;20195;-74
2023/07/29 00:37:28;;;;;;;6.68;2.28;;;;;;;17.40;69.92;94461.16;5068704;28;20202;-73
2023/07/29 00:39:55;;;;;;;4.32;2.63;;;;;;;17.36;70.20;94465.81;5068240;28;20645;-73
2023/07/29 00:42:22;;;;;;;3.17;2.22;;;;;;;17.29;70.56;94466.53;5067458;28;20297;-75
2023/07/29 00:44:48;;;;;;;3.15;2.28;;;;;;;17.25;70.26;94459.44;5068085;28;20199;-74
2023/07/29 00:47:17;;;;;;;2.97;2.22;;;;;;;17.32;69.74;94459.53;5068387;28;20256;-74
2023/07/29 00:49:45;;;;;;;5.47;2.25;;;;;;;17.31;69.74;94452.47;5068780;28;20199;-74
2023/07/29 00:52:12;;;;;;;2.97;2.28;;;;;;;17.29;69.45;94450.09;5068130;28;20317;-74
2023/07/29 00:54:39;;;;;;;3.65;2.10;;;;;;;17.26;69.23;94450.84;5068568;28;20209;-74
2023/07/29 00:57:07;;;;;;;4.28;2.50;;;;;;;17.25;69.15;94453.97;5068143;28;20679;-74
2023/07/29 00:59:36;;;;;;;4.20;2.35;;;;;;;17.27;69.30;94446.16;5070766;28;20264;-74
2023/07/29 01:02:03;;;;;;;2.90;2.38;;;;;;;17.26;69.16;94445.38;5074532;28;20612;-74
2023/07/29 01:04:31;;;;;;;3.88;2.53;;;;;;;17.33;68.13;94444.69;5068061;28;20697;-74
2023/07/29 01:07:08;;;;;;;4.78;2.40;;;;;;;17.37;67.95;94440.00;5080694;28;20577;-74
2023/07/29 01:09:44;;;;;;;3.78;2.50;;;;;;;17.37;68.61;94445.47;5068295;28;20198;-73
2023/07/29 01:12:20;;;;;;;3.65;2.42;;;;;;;17.29;69.49;94443.84;5067790;28;20268;-74
2023/07/29 01:14:52;;;;;;;3.30;2.15;;;;;;;17.21;70.33;94447.69;5076415;28;20206;-74
2023/07/29 01:17:24;;;;;;;5.07;2.20;;;;;;;17.13;70.54;94451.47;5068551;28;20187;-74
2023/07/29 01:20:02;;;;;;;6.65;2.65;;;;;;;17.10;70.98;94446.75;5068036;28;20682;-74
2023/07/29 01:22:30;;;;;;;3.63;2.70;;;;;;;17.02;71.22;94449.41;5064825;28;20621;-74
2023/07/29 01:24:59;;;;;;;3.00;2.30;;;;;;;17.08;71.02;94451.81;5079656;28;20202;-74
2023/07/29 01:27:26;;;;;;;2.95;2.10;;;;;;;17.14;70.74;94453.06;5068537;28;20278;-73
2023/07/29 01:29:53;;;;;;;3.55;2.70;;;;;;;17.09;70.45;94451.44;5068004;28;20211;-73
2023/07/29 01:32:29;;;;;;;5.72;2.50;;;;;;;17.13;69.21;94462.44;5068064;28;20687;-73
2023/07/29 01:35:04;;;;;;;8.00;2.72;;;;;;;17.16;69.04;94456.22;5064803;28;20635;-74
2023/07/29 01:37:34;;;;;;;2.85;2.30;;;;;;;17.12;70.13;94449.91;5068168;28;20634;-74
2023/07/29 01:40:03;;;;;;;4.78;2.35;;;;;;;17.08;70.34;94447.16;5074114;28;20677;-74
2023/07/29 01:42:31;;;;;;;5.18;2.60;;;;;;;17.05;71.42;94451.41;5069316;28;20199;-74
2023/07/29 01:44:58;;;;;;;2.67;2.03;;;;;;;16.97;71.74;94441.50;5071482;28;20636;-74
2023/07/29 01:47:25;;;;;;;4.03;2.58;;;;;;;16.88;72.63;94451.97;5071729;28;20214;-74
2023/07/29 01:49:52;;;;;;;2.85;2.13;;;;;;;16.85;72.60;94452.69;5071491;28;20195;-75
2023/07/29 01:52:19;;;;;;;3.15;2.42;;;;;;;16.80;73.19;94446.78;5071091;28;20231;-74
2023/07/29 01:54:46;;;;;;;3.53;2.50;;;;;;;16.73;73.52;94452.16;5070800;28;20661;-74
2023/07/29 01:57:14;;;;;;;3.95;2.30;;;;;;;16.85;73.11;94447.22;5071214;28;20197;-74
2023/07/29 01:59:41;;;;;;;3.88;2.50;;;;;;;16.72;73.35;94448.63;5064402;28;20198;-74
2023/07/29 02:02:08;;;;;;;3.42;2.28;;;;;;;16.74;73.32;94451.78;5091706;28;20293;-74
2023/07/29 02:04:35;;;;;;;8.80;2.38;;;;;;;16.69;73.79;94452.09;5071181;28;20199;-74
2023/07/29 02:07:01;;;;;;;2.35;2.00;;;;;;;16.66;73.87;94448.19;5080547;28;20199;-74
2023/07/29 02:09:29;;;;;;;4.05;2.30;;;;;;;16.62;73.97;94455.53;5065701;28;20617;-74
2023/07/29 02:11:55;;;;;;;3.17;2.40;;;;;;;16.55;73.54;94454.59;5077222;28;20227;-74
2023/07/29 02:14:24;;;;;;;2.60;2.40;;;;;;;16.55;73.81;94446.41;5071172;28;20195;-74
2023/07/29 02:16:51;;;;;;;3.83;2.60;;;;;;;16.61;73.73;94453.13;5070672;28;20704;-74
2023/07/29 02:19:18;;;;;;;4.82;2.20;;;;;;;16.55;74.37;94454.59;5071601;28;20253;-74
2023/07/29 02:21:44;;;;;;;4.15;2.67;;;;;;;16.56;74.07;94461.66;5070826;28;20798;-76
2023/07/29 02:24:11;;;;;;;4.97;2.28;;;;;;;16.60;74.24;94467.97;5071132;28;20195;-74
2023/07/29 02:26:38;;;;;;;5.47;2.50;;;;;;;16.60;74.64;94462.50;5071006;28;20597;-74
2023/07/29 02:29:05;;;;;;;3.92;2.65;;;;;;;16.56;74.99;94467.13;5070747;28;20296;-74
2023/07/29 02:31:34;;;;;;;4.35;2.80;;;;;;;16.63;75.06;94461.78;5070265;28;20299;-74
2023/07/29 02:34:02;;;;;;;3.13;2.30;;;;;;;16.67;74.29;94468.88;5070850;28;20202;-74
2023/07/29 02:36:29;;;;;;;3.90;2.25;;;;;;;16.59;74.69;94458.97;5070706;28;20221;-74
2023/07/29 02:38:56;;;;;;;4.13;2.45;;;;;;;16.58;75.10;94464.81;5059605;28;20195;-74
2023/07/29 02:41:23;;;;;;;4.57;2.50;;;;;;;16.59;75.01;94455.44;5070402;28;20286;-74
2023/07/29 02:43:50;;;;;;;4.35;2.33;;;;;;;16.48;75.37;94451.78;5070572;28;20206;-74
2023/07/29 02:46:17;;;;;;;4.47;2.30;;;;;;;16.47;75.39;94456.47;5070274;28;20203;-74
2023/07/29 02:48:46;;;;;;;2.97;2.10;;;;;;;16.42;75.61;94453.25;5069856;28;20199;-75
2023/07/29 02:51:13;;;;;;;4.72;2.45;;;;;;;16.41;75.68;94451.66;5070665;28;20223;-75
2023/07/29 02:53:40;;;;;;;2.60;2.40;;;;;;;16.41;75.08;94454.41;5070300;28;20312;-75
2023/07/29 02:56:09;;;;;;;4.70;2.30;;;;;;;16.46;74.71;94454.09;5070506;28;20734;-75
2023/07/29 02:58:35;;;;;;;3.35;2.33;;;;;;;16.31;76.12;94456.63;5070512;28;20317;-74
2023/07/29 03:01:03;;;;;;;2.97;2.10;;;;;;;16.32;75.57;94463.66;5070575;28;20198;-75
2023/07/29 03:03:29;;;;;;;4.60;2.78;;;;;;;16.38;75.44;94458.69;5070170;28;20290;-75
2023/07/29 03:06:01;;;;;;;4.97;2.70;;;;;;;16.40;75.19;94469.25;5074166;28;20209;-74
2023/07/29 03:08:27;;;;;;;3.58;2.30;;;;;;;16.38;74.97;94468.81;5073480;28;20739;-74
2023/07/29 03:10:55;;;;;;;3.67;2.58;;;;;;;16.37;74.68;94464.50;5070211;28;20191;-73
2023/07/29 03:13:22;;;;;;;4.15;2.53;;;;;;;16.41;74.94;94476.28;5069929;28;20730;-75
2023/07/29 03:15:49;;;;;;;4.05;2.28;;;;;;;16.37;75.00;94480.91;5069928;28;20237;-73
2023/07/29 03:18:16;;;;;;;4.70;2.33;;;;;;;16.31;75.23;94477.69;5069892;28;20199;-75
2023/07/29 03:20:42;;;;;;;5.35;2.75;;;;;;;16.34;74.94;94474.22;5070601;28;20200;-73
2023/07/29 03:23:11;;;;;;;3.95;2.40;;;;;;;16.32;75.18;94477.34;5069676;28;20206;-74
2023/07/29 03:25:38;;;;;;;3.97;2.70;;;;;;;16.42;75.86;94477.84;5069826;28;20665;-74
2023/07/29 03:28:04;;;;;;;4.07;2.92;;;;;;;16.91;74.81;94475.84;5069799;28;20199;-74
2023/07/29 03:30:31;;;;;;;3.60;2.55;;;;;;;17.82;72.70;94479.25;5066615;28;20203;-74
2023/07/29 03:32:58;;;;;;;3.80;2.90;;;;;;;18.82;69.26;94467.91;5068844;28;20237;-74
2023/07/29 03:35:25;;;;;;;4.85;2.65;;;;;;;19.77;65.61;94467.50;5069605;28;20297;-74
2023/07/29 03:37:51;;;;;;;4.47;3.10;;;;;;;20.55;62.73;94461.25;5071789;28;20210;-74
2023/07/29 03:40:20;;;;;;;3.92;2.70;;;;;;;21.50;59.98;94464.94;5069575;28;20199;-74
2023/07/29 03:42:46;;;;;;;3.95;3.20;;;;;;;22.13;57.55;94457.50;5069111;28;20203;-75
2023/07/29 03:45:13;;;;;;;3.63;2.80;;;;;;;22.31;55.92;94463.66;5067927;28;20252;-75
2023/07/29 03:47:40;;;;;;;3.80;2.90;;;;;;;22.54;55.16;94463.88;5069637;28;20191;-75
2023/07/29 03:50:07;;;;;;;4.22;2.90;;;;;;;23.25;53.69;94454.88;5069551;28;20294;-75
2023/07/29 03:52:34;;;;;;;5.55;2.80;;;;;;;23.59;53.00;94454.09;5068751;28;20693;-75
2023/07/29 03:55:01;;;;;;;3.63;2.70;;;;;;;24.25;50.60;94442.50;5069430;28;20270;-75
2023/07/29 03:57:30;;;;;;;6.65;2.60;;;;;;;24.23;50.18;94447.66;5069493;28;20256;-75
2023/07/29 03:59:56;;;;;;;4.20;3.10;;;;;;;24.61;49.36;94442.69;5074205;28;20244;-75
2023/07/29 04:02:23;;;;;;;5.68;3.40;;;;;;;24.99;48.45;94440.47;5073344;28;20199;-75
2023/07/29 04:04:50;;;;;;;3.53;2.72;;;;;;;25.60;46.79;94446.38;5068771;28;20592;-75
2023/07/29 04:07:17;;;;;;;5.18;3.28;;;;;;;26.42;45.31;94444.56;5078213;28;20202;-74
2023/07/29 04:09:44;;;;;;;6.30;3.30;;;;;;;27.15;43.12;94446.69;5068964;28;20206;-75
2023/07/29 04:12:12;;;;;;;5.78;3.28;;;;;;;26.98;44.03;94447.94;5068646;28;20230;-75
2023/07/29 04:14:41;;;;;;;5.40;3.33;;;;;;;26.98;43.52;94459.06;5069002;28;20203;-75
2023/07/29 04:17:08;;;;;;;4.45;2.90;;;;;;;27.38;42.35;94447.66;5068826;28;20348;-75
2023/07/29 04:19:35;;;;;;;6.60;3.47;;;;;;;27.72;42.49;94444.34;5069161;28;20199;-75
2023/07/29 04:22:02;;;;;;;5.10;3.50;;;;;;;27.81;42.30;94447.25;5068674;28;20191;-75
2023/07/29 04:24:29;;;;;;;6.63;3.72;;;;;;;28.32;41.35;94442.50;5079796;28;20244;-75
2023/07/29 04:26:56;;;;;;;6.82;3.60;;;;;;;29.13;39.47;94444.59;5066068;28;20264;-75
2023/07/29 04:29:23;;;;;;;5.15;2.65;;;;;;;27.72;39.87;94439.56;5068825;28;20284;-75
2023/07/29 04:31:51;;;;;;;3.47;3.10;;;;;;;28.50;38.05;94442.72;5068389;28;20254;-75
2023/07/29 04:34:19;;;;;;;7.43;3.17;;;;;;;29.17;37.54;94444.47;5068652;28;20202;-75
2023/07/29 04:36:45;;;;;;;3.63;3.08;;;;;;;30.08;36.85;94442.34;5069101;28;20230;-74
2023/07/29 04:39:12;;;;;;;5.75;2.92;;;;;;;29.28;37.25;94444.88;5068325;28;20199;-75
2023/07/29 04:41:39;;;;;;;3.92;2.97;;;;;;;30.11;35.52;94444.22;5068721;28;20214;-75
2023/07/29 04:44:06;;;;;;;4.07;3.10;;;;;;;29.74;36.05;94453.63;5068328;28;20203;-75
2023/07/29 04:46:33;;;;;;;4.07;2.70;;;;;;;28.77;37.00;94453.38;5073504;28;20213;-75
2023/07/29 04:49:02;;;;;;;3.67;2.60;;;;;;;29.59;35.90;94448.56;5068850;28;20195;-75
2023/07/29 04:51:29;;;;;;;4.65;3.03;;;;;;;29.64;35.33;94450.78;5068635;28;20207;-75
2023/07/29 04:53:56;;;;;;;2.70;2.50;;;;;;;30.46;34.02;94458.06;5069635;28;20270;-74
2023/07/29 04:56:22;;;;;;;5.68;2.58;;;;;;;30.94;33.81;94454.47;5068498;28;20199;-75
2023/07/29 04:58:49;;;;;;;2.78;2.50;;;;;;;29.75;34.96;94471.94;5068416;28;20215;-75
2023/07/29 05:01:16;;;;;;;3.58;2.83;;;;;;;30.28;34.70;94462.34;5078271;28;20723;-76
2023/07/29 05:03:43;;;;;;;3.13;2.75;;;;;;;31.93;32.38;94465.44;5068362;28;20195;-75
2023/07/29 05:06:11;;;;;;;4.75;2.75;;;;;;;31.95;32.10;94457.34;5068228;28;20194;-76
2023/07/29 05:08:38;;;;;;;4.32;2.90;;;;;;;31.64;32.94;94472.31;5086779;28;20214;-75
2023/07/29 05:11:05;;;;;;;3.40;2.83;;;;;;;32.77;31.23;94471.88;5068617;28;20249;-75
2023/07/29 05:13:32;;;;;;;4.50;3.25;;;;;;;33.45;30.29;94463.66;5068317;28;20770;-76
2023/07/29 05:15:58;;;;;;;3.85;2.92;;;;;;;33.74;29.67;94474.19;5068350;28;20199;-76
2023/07/29 05:18:25;;;;;;;3.45;3.15;;;;;;;33.12;31.36;94471.34;5070763;28;20669;-76
2023/07/29 05:20:52;;;;;;;3.53;2.95;;;;;;;33.63;30.36;94479.59;5072234;28;20195;-76
2023/07/29 05:23:20;;;;;;;5.50;3.78;;;;;;;33.49;30.18;94474.69;5072189;28;20198;-76
2023/07/29 05:25:47;;;;;;;4.18;3.40;;;;;;;34.35;29.19;94471.75;5072061;28;20224;-77
2023/07/29 05:28:13;;;;;;;4.45;2.85;;;;;;;33.92;30.67;94478.09;5072034;28;20286;-76
2023/07/29 05:30:40;;;;;;;5.35;3.13;;;;;;;33.79;29.90;94476.34;5072033;28;20210;-75
2023/07/29 05:33:08;;;;;;;5.60;3.25;;;;;;;33.35;30.28;94481.09;5071172;28;20303;-78
2023/07/29 05:35:35;;;;;;;4.57;3.05;;;;;;;34.30;29.12;94480.88;5071980;28;20916;-79
2023/07/29 05:38:03;;;;;;;6.40;3.28;;;;;;;33.38;30.05;94480.09;5073171;28;20260;-78
2023/07/29 05:40:31;;;;;;;3.72;3.20;;;;;;;33.48;30.03;94482.38;5075404;28;20199;-78
2023/07/29 05:42:58;;;;;;;3.40;2.88;;;;;;;33.77;30.14;94490.09;5072183;28;20214;-78
2023/07/29 05:45:24;;;;;;;5.65;3.05;;;;;;;35.02;28.31;94481.25;5071598;28;20202;-78
2023/07/29 05:47:51;;;;;;;5.80;3.78;;;;;;;33.42;30.07;94500.38;5071517;28;20287;-76
2023/07/29 05:50:18;;;;;;;5.47;3.40;;;;;;;34.38;28.95;94487.66;5071495;28;20206;-76
2023/07/29 05:52:45;;;;;;;4.68;3.40;;;;;;;34.67;28.46;94491.72;5071187;28;20272;-75
2023/07/29 05:55:11;;;;;;;3.95;2.90;;;;;;;35.66;27.31;94485.97;5071592;28;20225;-75
2023/07/29 05:57:39;;;;;;;3.63;2.95;;;;;;;35.43;27.83;94486.94;5075076;28;20210;-75
2023/07/29 06:00:07;;;;;;;3.78;3.30;;;;;;;34.44;28.23;94482.88;5088013;28;20198;-78
2023/07/29 06:02:34;;;;;;;4.75;3.47;;;;;;;32.92;30.42;94491.63;5068602;28;20574;-78
2023/07/29 06:05:02;;;;;;;6.20;3.10;;;;;;;32.12;31.47;94494.97;5071409;28;20252;-76
2023/07/29 06:07:30;;;;;;;5.55;2.90;;;;;;;32.58;31.49;94492.03;5071133;28;20203;-75
2023/07/29 06:10:00;;;;;;;3.97;3.00;;;;;;;31.31;33.49;94499.34;5070655;28;20643;-77
2023/07/29 06:12:27;;;;;;;3.50;3.20;;;;;;;32.84;30.69;94484.78;5070700;28;20284;-77
2023/07/29 06:14:55;;;;;;;4.93;3.28;;;;;;;34.20;29.42;94487.81;5070492;28;20206;-77
2023/07/29 06:17:22;;;;;;;5.80;3.22;;;;;;;34.70;28.79;94480.25;5070681;28;20199;-75
2023/07/29 06:19:48;;;;;;;4.53;3.58;;;;;;;36.28;27.12;94478.97;5068050;28;20195;-76
2023/07/29 06:22:15;;;;;;;4.28;3.03;;;;;;;34.49;28.21;94481.44;5070365;28;20280;-77
2023/07/29 06:24:42;;;;;;;5.05;2.70;;;;;;;33.52;29.65;94482.94;5069262;28;20210;-77
2023/07/29 06:27:09;;;;;;;3.15;2.85;;;;;;;34.61;28.85;94482.38;5069872;28;20237;-77
2023/07/29 06:29:35;;;;;;;4.15;3.10;;;;;;;32.75;30.71;94484.84;5070210;28;20203;-75
2023/07/29 06:32:04;;;;;;;4.60;2.80;;;;;;;34.55;28.97;94469.03;5070276;28;20235;-77
2023/07/29 06:34:31;;;;;;;5.03;2.97;;;;;;;35.69;27.63;94473.69;5070084;28;20219;-79
2023/07/29 06:36:58;;;;;;;3.08;2.78;;;;;;;34.29;29.42;94473.72;5069997;28;20199;-80
2023/07/29 06:39:24;;;;;;;5.65;3.08;;;;;;;34.71;27.99;94464.91;5068521;28;20602;-79
2023/07/29 06:41:51;;;;;;;4.63;2.72;;;;;;;34.83;28.22;94465.88;5072148;28;20195;-78
2023/07/29 06:44:21;;;;;;;5.53;3.10;;;;;;;34.46;28.85;94457.84;5069418;28;20199;-76
2023/07/29 06:46:48;;;;;;;4.45;2.95;;;;;;;34.32;28.41;94455.06;5074092;28;20198;-76
2023/07/29 06:49:16;;;;;;;4.35;3.40;;;;;;;34.86;27.98;94451.59;5070127;28;20279;-76
2023/07/29 06:51:43;;;;;;;3.50;2.55;;;;;;;35.45;28.12;94459.03;5072063;28;20192;-77
2023/07/29 06:54:09;;;;;;;4.15;2.90;;;;;;;34.19;28.99;94458.13;5069251;28;20231;-76
2023/07/29 06:56:36;;;;;;;4.50;2.95;;;;;;;34.15;29.56;94463.22;5066931;28;20203;-76
2023/07/29 06:59:03;;;;;;;3.70;3.20;;;;;;;33.51;29.50;94466.56;5069259;28;20712;-76
2023/07/29 07:01:30;;;;;;;4.45;2.80;;;;;;;33.44;29.78;94461.34;5069197;28;20207;-75
2023/07/29 07:03:58;;;;;;;5.53;2.97;;;;;;;34.26;29.75;94459.81;5069586;28;20210;-77
2023/07/29 07:06:26;;;;;;;3.95;3.08;;;;;;;33.62;29.82;94464.00;5077179;28;20241;-78
2023/07/29 07:08:53;;;;;;;3.72;3.20;;;;;;;33.94;29.62;94464.34;5069490;28;20218;-77
2023/07/29 07:11:20;;;;;;;3.53;2.70;;;;;;;33.74;29.33;94460.16;5067598;28;20292;-76
2023/07/29 07:13:47;;;;;;;5.63;2.72;;;;;;;34.07;29.98;94462.03;5069452;28;20227;-78
2023/07/29 07:16:13;;;;;;;4.45;3.35;;;;;;;33.38;30.37;94466.06;5069489;28;20199;-78
2023/07/29 07:18:40;;;;;;;6.10;3.00;;;;;;;34.86;29.25;94459.25;5069809;28;20199;-78
2023/07/29 07:21:07;;;;;;;3.30;2.92;;;;;;;33.49;29.80;94457.84;5069560;28;20206;-78
2023/07/29 07:23:35;;;;;;;4.45;2.90;;;;;;;32.44;30.71;94457.81;5069634;28;20328;-75
2023/07/29 07:26:02;;;;;;;3.42;2.80;;;;;;;32.20;31.69;94462.59;5069238;28;20203;-76
2023/07/29 07:28:29;;;;;;;3.75;2.70;;;;;;;33.66;29.42;94456.16;5069002;28;20203;-76
2023/07/29 07:30:56;;;;;;;3.97;2.67;;;;;;;33.89;28.81;94463.75;5067611;28;20198;-76
2023/07/29 07:33:23;;;;;;;4.47;2.58;;;;;;;34.27;28.19;94453.72;5068647;28;20234;-76
2023/07/29 07:35:49;;;;;;;2.92;2.30;;;;;;;34.92;28.51;94451.66;5069536;28;20198;-75
2023/07/29 07:38:16;;;;;;;3.22;2.90;;;;;;;33.83;29.90;94446.03;5068659;28;20900;-75
2023/07/29 07:40:53;;;;;;;5.60;3.35;;;;;;;33.04;30.46;94445.69;5068566;28;20217;-76
2023/07/29 07:43:20;;;;;;;4.25;2.80;;;;;;;34.20;29.64;94442.81;5068156;28;20195;-75
2023/07/29 07:45:47;;;;;;;4.20;3.10;;;;;;;34.56;29.49;94445.25;5068721;28;20605;-75
2023/07/29 07:48:14;;;;;;;5.72;3.42;;;;;;;33.14;30.51;94454.81;5067515;28;20648;-74
2023/07/29 07:50:41;;;;;;;5.18;2.92;;;;;;;33.00;31.87;94444.31;5069472;28;20270;-76
2023/07/29 07:53:07;;;;;;;5.68;3.40;;;;;;;33.05;31.05;94452.84;5075427;28;20604;-75
2023/07/29 07:55:34;;;;;;;8.73;3.90;;;;;;;32.42;32.45;94451.91;5072953;28;20269;-74
2023/07/29 07:58:02;;;;;;;3.72;3.35;;;;;;;31.34;33.15;94464.81;5076241;28;20206;-76
2023/07/29 08:00:29;;;;;;;5.82;3.70;;;;;;;32.23;32.56;94453.22;5085016;28;20221;-74
2023/07/29 08:03:15;;;;;;;6.40;3.60;;;;;;;32.70;32.01;94443.34;5066321;28;20195;-75
2023/07/29 08:05:42;;;;;;;4.10;3.70;;;;;;;32.13;32.75;94457.25;5063783;28;20194;-74
2023/07/29 08:08:09;;;;;;;6.43;3.75;;;;;;;32.27;33.19;94456.63;5063898;28;20199;-75
2023/07/29 08:10:35;;;;;;;5.43;3.80;;;;;;;31.95;33.03;94452.50;5071769;28;20270;-75
2023/07/29 08:13:03;;;;;;;9.95;3.55;;;;;;;32.35;32.99;94457.09;5077753;28;20272;-76
2023/07/29 08:15:30;;;;;;;4.07;3.33;;;;;;;31.31;34.45;94454.53;5068757;28;20622;-75
2023/07/29 08:17:59;;;;;;;4.90;3.63;;;;;;;29.60;36.68;94458.50;5068893;28;20203;-75
2023/07/29 08:20:36;;;;;;;5.50;4.03;;;;;;;30.11;35.56;94463.78;5068653;28;20598;-76
2023/07/29 08:23:04;;;;;;;4.72;3.35;;;;;;;30.81;34.92;94467.81;5068309;28;20525;-75
2023/07/29 08:25:35;;;;;;;6.82;3.60;;;;;;;31.28;34.85;94466.69;5068506;28;20203;-76
2023/07/29 08:28:07;;;;;;;5.43;3.30;;;;;;;31.70;32.88;94453.66;5068427;28;20190;-75
2023/07/29 08:30:33;;;;;;;5.00;4.05;;;;;;;31.13;34.26;94454.53;5056268;28;20203;-76
2023/07/29 08:33:05;;;;;;;7.55;3.58;;;;;;;29.66;36.77;94461.47;5068153;28;20720;-75
2023/07/29 08:35:35;;;;;;;9.90;3.97;;;;;;;29.90;35.91;94456.22;5068928;28;20531;-77
2023/07/29 08:38:03;;;;;;;7.30;3.55;;;;;;;30.60;35.26;94449.91;5082201;28;20202;-75
2023/07/29 08:40:32;;;;;;;6.80;3.63;;;;;;;29.55;36.67;94453.50;5069193;28;20199;-76
2023/07/29 08:43:03;;;;;;;6.75;4.05;;;;;;;29.37;36.72;94456.13;5067582;28;20681;-76
2023/07/29 08:45:36;;;;;;;6.93;3.92;;;;;;;29.55;36.17;94453.50;5066864;28;20581;-78
2023/07/29 08:48:08;;;;;;;5.68;3.30;;;;;;;30.02;36.44;94436.59;5065801;28;20207;-77
2023/07/29 08:50:39;;;;;;;8.90;3.45;;;;;;;30.36;35.65;94432.84;5068593;28;20268;-75
2023/07/29 08:53:08;;;;;;;4.07;3.20;;;;;;;30.93;34.30;94436.13;5071944;28;20225;-77
2023/07/29 08:55:42;;;;;;;5.55;3.22;;;;;;;30.89;35.57;94441.09;5072887;28;20710;-76
2023/07/29 08:58:13;;;;;;;4.53;2.50;;;;;;;29.72;35.10;94433.75;5059383;28;20222;-74
2023/07/29 09:00:44;;;;;;;8.32;3.38;;;;;;;29.82;34.95;94426.97;5081955;28;20209;-76
2023/07/29 09:03:11;;;;;;;2.65;2.00;;;;;;;29.78;33.72;94438.31;5072602;28;20195;-76
2023/07/29 09:05:41;;;;;;;2.97;2.05;;;;;;;29.21;33.52;94439.56;5072557;28;20256;-74
2023/07/29 09:08:08;;;;;;;7.18;2.25;;;;;;;29.33;34.58;94435.94;5072434;28;20213;-75
2023/07/29 09:10:37;;;;;;;5.50;2.45;;;;;;;29.14;34.64;94428.63;5072379;28;20676;-75
2023/07/29 09:13:04;;;;;;;3.00;2.28;;;;;;;29.99;34.48;94425.56;5071464;28;20222;-76
2023/07/29 09:15:32;;;;;;;3.85;2.20;;;;;;;30.37;32.71;94428.81;5071538;28;20917;-76
2023/07/29 09:18:09;;;;;;;3.20;2.45;;;;;;;30.86;32.19;94430.06;5072254;28;20248;-75
2023/07/29 09:20:36;;;;;;;3.35;2.50;;;;;;;30.93;32.09;94424.94;5071283;28;20203;-74
2023/07/29 09:23:03;;;;;;;2.70;2.30;;;;;;;30.66;33.73;94413.69;5071415;28;20736;-77
2023/07/29 09:25:31;;;;;;;3.28;2.58;;;;;;;30.55;32.86;94416.16;5072305;28;20210;-74
2023/07/29 09:28:09;;;;;;;2.65;2.35;;;;;;;30.10;33.06;94409.13;5070423;28;20253;-75
2023/07/29 09:30:39;;;;;;;4.28;2.35;;;;;;;30.72;32.22;94409.84;5059070;28;20719;-76
2023/07/29 09:33:10;;;;;;;4.03;2.30;;;;;;;31.04;31.55;94408.47;5071466;28;20231;-75
2023/07/29 09:35:42;;;;;;;5.57;1.95;;;;;;;31.12;31.28;94408.19;5072383;28;20196;-76
2023/07/29 09:38:17;;;;;;;5.95;2.50;;;;;;;31.65;31.49;94401.03;5071640;28;20183;-75
2023/07/29 09:40:47;;;;;;;4.50;3.60;;;;;;;31.61;30.90;94400.38;5071126;28;20346;-76
2023/07/29 09:43:26;;;;;;;4.72;2.30;;;;;;;31.82;30.48;94397.88;5084645;28;20272;-74
2023/07/29 09:45:53;;;;;;;2.88;2.03;;;;;;;31.40;31.52;94398.56;5066763;28;20196;-77
2023/07/29 09:48:23;;;;;;;3.28;2.15;;;;;;;31.58;31.65;94389.34;5058347;28;20214;-78
2023/07/29 09:50:50;;;;;;;2.00;1.77;;;;;;;31.70;30.86;94389.22;5071415;28;20191;-80
2023/07/29 09:53:18;;;;;;;3.25;1.95;;;;;;;31.71;31.10;94385.13;5070259;28;20615;-77
2023/07/29 09:55:51;;;;;;;2.63;2.28;;;;;;;31.91;31.31;94383.84;5070666;28;20286;-77
2023/07/29 09:58:26;;;;;;;5.65;2.10;;;;;;;32.14;30.26;94374.72;5079179;28;20240;-75
2023/07/29 10:00:58;;;;;;;2.25;1.95;;;;;;;32.06;29.95;94373.50;5081491;28;20819;-76
2023/07/29 10:03:35;;;;;;;3.25;1.95;;;;;;;31.87;30.06;94378.41;5070971;28;20202;-74
2023/07/29 10:06:12;;;;;;;2.00;1.50;;;;;;;31.85;29.80;94380.13;5071492;28;20677;-75
2023/07/29 10:08:40;;;;;;;3.03;1.90;;;;;;;31.44;30.37;94369.13;5072628;28;20297;-76
2023/07/29 10:11:08;;;;;;;2.20;1.70;;;;;;;32.00;30.10;94372.59;5057794;28;20261;-75
2023/07/29 10:13:35;;;;;;;2.30;1.73;;;;;;;31.60;30.17;94382.03;5069876;28;20219;-77
2023/07/29 10:16:03;;;;;;;1.75;1.63;;;;;;;31.11;30.73;94378.66;5070453;28;20570;-74
2023/07/29 10:18:32;;;;;;;1.90;1.50;;;;;;;31.02;31.28;94377.41;5068647;28;20833;-74
2023/07/29 10:21:00;;;;;;;2.53;1.83;;;;;;;31.48;30.23;94363.38;5070815;28;20658;-74
2023/07/29 10:23:29;;;;;;;2.55;1.88;;;;;;;31.44;29.71;94357.16;5068091;28;20612;-73
2023/07/29 10:26:02;;;;;;;2.83;1.55;;;;;;;30.57;29.97;94363.34;5069877;28;20195;-74
2023/07/29 10:28:31;;;;;;;2.80;1.95;;;;;;;30.59;30.07;94355.28;5068803;28;20210;-76
2023/07/29 10:30:58;;;;;;;2.17;1.75;;;;;;;31.13;30.45;94353.78;5069912;28;20201;-77
2023/07/29 10:33:25;;;;;;;3.78;1.85;;;;;;;31.81;29.46;94348.69;5067033;28;20234;-76
2023/07/29 10:35:54;;;;;;;4.07;1.70;;;;;;;32.04;29.53;94333.97;5068892;28;20199;-75
2023/07/29 10:38:23;;;;;;;2.00;1.80;;;;;;;32.44;28.91;94336.44;5072677;28;20661;-74
2023/07/29 10:40:55;;;;;;;3.70;1.50;;;;;;;32.52;27.45;94332.03;5069833;28;20195;-73
2023/07/29 10:43:26;;;;;;;1.45;1.30;;;;;;;32.05;28.88;94332.72;5066739;28;20207;-74
2023/07/29 10:45:53;;;;;;;2.22;1.60;;;;;;;31.48;28.17;94335.38;5065616;28;20620;-74
2023/07/29 10:48:42;;;;;;;1.10;1.00;;;;;;;31.43;28.57;94333.22;5070516;28;20210;-76
2023/07/29 10:51:30;;;;;;;1.60;1.40;;;;;;;30.74;30.05;94339.47;5068807;28;20654;-74
2023/07/29 10:53:59;;;;;;;2.33;1.70;;;;;;;30.76;29.15;94325.75;5069151;28;20720;-76
2023/07/29 10:56:29;;;;;;;3.53;1.40;;;;;;;30.51;29.36;94331.63;5067418;28;20241;-74
2023/07/29 10:58:58;;;;;;;2.05;1.38;;;;;;;30.73;29.83;94321.13;5077400;28;20443;-74
2023/07/29 11:01:52;;;;;;;1.83;1.20;;;;;;;31.61;29.03;94310.75;5072008;28;20195;-78
2023/07/29 11:04:26;;;;;;;1.92;1.20;;;;;;;31.44;28.43;94299.13;5055849;28;20211;-75
2023/07/29 11:07:34;;;;;;;3.22;0.93;;;;;;;30.83;27.87;94316.28;5070625;28;20213;-73
2023/07/29 11:10:10;;;;;;;1.35;1.10;;;;;;;30.98;27.73;94320.03;5061589;28;20198;-76
2023/07/29 11:12:47;;;;;;;1.80;1.13;;;;;;;31.31;27.96;94312.53;5069923;28;20696;-76
2023/07/29 11:15:22;;;;;;;2.22;1.10;;;;;;;31.46;27.76;94304.25;5067458;28;20226;-78
2023/07/29 11:17:50;;;;;;;1.27;1.02;;;;;;;31.22;27.74;94317.38;5069574;28;20213;-77
2023/07/29 11:20:18;;;;;;;1.20;1.02;;;;;;;31.30;28.02;94310.19;5067641;28;20207;-73
2023/07/29 11:22:47;;;;;;;2.15;1.20;;;;;;;31.42;27.68;94300.88;5069878;28;20752;-75
2023/07/29 11:25:16;;;;;;;1.10;1.00;;;;;;;31.31;27.35;94308.94;5076808;28;20261;-75
2023/07/29 11:27:43;;;;;;;1.48;1.00;;;;;;;31.45;27.15;94297.09;5069929;28;20233;-76
2023/07/29 11:30:15;;;;;;;1.65;1.20;;;;;;;31.42;26.96;94300.88;5069324;28;20203;-76
2023/07/29 11:32:47;;;;;;;3.03;1.30;;;;;;;31.69;27.32;94295.22;5069007;28;20227;-76
2023/07/29 11:35:16;;;;;;;1.70;1.20;;;;;;;32.01;27.27;94288.03;5069707;28;20698;-76
2023/07/29 11:37:45;;;;;;;1.52;1.30;;;;;;;32.28;26.80;94289.94;5070112;28;20203;-75
2023/07/29 11:40:17;;;;;;;1.50;1.30;;;;;;;32.33;27.05;94286.50;5069499;28;20252;-76